sensor_id;sensor_type;location;lat;lon;timestamp;P1;durP1;ratioP1;P2;durP2;ratioP2
38457;SDS011;24239;48.058;10.486;2024-03-06T00:01:15;14.52;;;6.32;;
38457;SDS011;24239;48.058;10.486;2024-03-06T00:04:01;14.35;;;6.82;;
38457;SDS011;24239;48.058;10.486;2024-03-06T00:06:49;13.70;;;6.40;;
38457;SDS011;24239;48.058;10.486;2024-03-06T00:09:37;12.20;;;6.10;;
38457;SDS011;24239;48.058;10.486;2024-03-06T00:12:22;13.07;;;6.20;;
38457;SDS011;24239;48.058;10.486;2024-03-06T00:15:08;12.38;;;5.72;;
38457;SDS011;24239;48.058;10.486;2024-03-06T00:17:54;14.43;;;5.40;;
38457;SDS011;24239;48.058;10.486;2024-03-06T00:20:40;14.48;;;5.75;;
38457;SDS011;24239;48.058;10.486;2024-03-06T00:23:27;8.85;;;6.22;;
38457;SDS011;24239;48.058;10.486;2024-03-06T00:26:13;9.05;;;6.10;;
38457;SDS011;24239;48.058;10.486;2024-03-06T00:28:59;12.50;;;7.40;;
38457;SDS011;24239;48.058;10.486;2024-03-06T00:31:45;12.75;;;5.90;;
38457;SDS011;24239;48.058;10.486;2024-03-06T00:34:31;9.52;;;5.88;;
38457;SDS011;24239;48.058;10.486;2024-03-06T00:37:17;12.60;;;6.80;;
38457;SDS011;24239;48.058;10.486;2024-03-06T00:40:03;17.48;;;7.20;;
38457;SDS011;24239;48.058;10.486;2024-03-06T00:42:49;13.65;;;6.93;;
38457;SDS011;24239;48.058;10.486;2024-03-06T00:45:34;16.45;;;6.93;;
38457;SDS011;24239;48.058;10.486;2024-03-06T00:48:20;11.82;;;6.82;;
38457;SDS011;24239;48.058;10.486;2024-03-06T00:51:06;13.43;;;6.80;;
38457;SDS011;24239;48.058;10.486;2024-03-06T00:53:52;13.57;;;6.60;;
38457;SDS011;24239;48.058;10.486;2024-03-06T00:56:38;13.45;;;7.13;;
38457;SDS011;24239;48.058;10.486;2024-03-06T00:59:24;11.70;;;6.88;;
38457;SDS011;24239;48.058;10.486;2024-03-06T01:02:10;11.82;;;6.57;;
38457;SDS011;24239;48.058;10.486;2024-03-06T01:04:55;9.50;;;6.95;;
38457;SDS011;24239;48.058;10.486;2024-03-06T01:07:41;13.50;;;7.45;;
38457;SDS011;24239;48.058;10.486;2024-03-06T01:10:28;13.82;;;8.13;;
38457;SDS011;24239;48.058;10.486;2024-03-06T01:13:13;11.40;;;7.90;;
38457;SDS011;24239;48.058;10.486;2024-03-06T01:15:59;18.30;;;8.60;;
38457;SDS011;24239;48.058;10.486;2024-03-06T01:18:45;13.95;;;7.97;;
38457;SDS011;24239;48.058;10.486;2024-03-06T01:21:31;16.65;;;8.43;;
38457;SDS011;24239;48.058;10.486;2024-03-06T01:24:17;18.17;;;8.73;;
38457;SDS011;24239;48.058;10.486;2024-03-06T01:27:03;17.67;;;8.45;;
38457;SDS011;24239;48.058;10.486;2024-03-06T01:29:49;16.58;;;9.52;;
38457;SDS011;24239;48.058;10.486;2024-03-06T01:32:34;17.15;;;9.98;;
38457;SDS011;24239;48.058;10.486;2024-03-06T01:35:20;13.75;;;9.30;;
38457;SDS011;24239;48.058;10.486;2024-03-06T01:38:06;20.42;;;10.25;;
38457;SDS011;24239;48.058;10.486;2024-03-06T01:40:52;21.73;;;10.60;;
38457;SDS011;24239;48.058;10.486;2024-03-06T01:43:38;17.88;;;9.30;;
38457;SDS011;24239;48.058;10.486;2024-03-06T01:46:24;16.92;;;9.35;;
38457;SDS011;24239;48.058;10.486;2024-03-06T01:49:11;20.08;;;10.38;;
38457;SDS011;24239;48.058;10.486;2024-03-06T01:51:58;20.80;;;10.05;;
38457;SDS011;24239;48.058;10.486;2024-03-06T01:54:45;19.20;;;9.93;;
38457;SDS011;24239;48.058;10.486;2024-03-06T01:57:32;21.38;;;10.07;;
38457;SDS011;24239;48.058;10.486;2024-03-06T02:00:18;18.35;;;11.25;;
38457;SDS011;24239;48.058;10.486;2024-03-06T02:03:04;20.48;;;11.15;;
38457;SDS011;24239;48.058;10.486;2024-03-06T02:05:53;20.08;;;11.50;;
38457;SDS011;24239;48.058;10.486;2024-03-06T02:08:39;19.85;;;10.82;;
38457;SDS011;24239;48.058;10.486;2024-03-06T02:11:25;23.45;;;10.85;;
38457;SDS011;24239;48.058;10.486;2024-03-06T02:14:10;24.60;;;11.57;;
38457;SDS011;24239;48.058;10.486;2024-03-06T02:16:56;21.50;;;11.25;;
38457;SDS011;24239;48.058;10.486;2024-03-06T02:19:43;22.52;;;11.57;;
38457;SDS011;24239;48.058;10.486;2024-03-06T02:22:29;23.90;;;11.88;;
38457;SDS011;24239;48.058;10.486;2024-03-06T02:25:15;21.98;;;12.23;;
38457;SDS011;24239;48.058;10.486;2024-03-06T02:28:01;23.60;;;11.52;;
38457;SDS011;24239;48.058;10.486;2024-03-06T02:30:49;24.70;;;12.45;;
38457;SDS011;24239;48.058;10.486;2024-03-06T02:33:36;20.30;;;12.15;;
38457;SDS011;24239;48.058;10.486;2024-03-06T02:36:21;21.17;;;11.70;;
38457;SDS011;24239;48.058;10.486;2024-03-06T02:39:07;25.55;;;13.00;;
38457;SDS011;24239;48.058;10.486;2024-03-06T02:41:54;23.92;;;13.80;;
38457;SDS011;24239;48.058;10.486;2024-03-06T02:44:39;26.27;;;13.23;;
38457;SDS011;24239;48.058;10.486;2024-03-06T02:47:25;25.45;;;12.82;;
38457;SDS011;24239;48.058;10.486;2024-03-06T02:50:11;29.60;;;13.60;;
38457;SDS011;24239;48.058;10.486;2024-03-06T02:52:56;31.08;;;13.73;;
38457;SDS011;24239;48.058;10.486;2024-03-06T02:55:42;28.13;;;14.35;;
38457;SDS011;24239;48.058;10.486;2024-03-06T02:58:28;29.80;;;14.95;;
38457;SDS011;24239;48.058;10.486;2024-03-06T03:01:16;28.45;;;14.65;;
38457;SDS011;24239;48.058;10.486;2024-03-06T03:04:02;33.83;;;15.73;;
38457;SDS011;24239;48.058;10.486;2024-03-06T03:06:48;28.35;;;15.50;;
38457;SDS011;24239;48.058;10.486;2024-03-06T03:09:34;28.85;;;14.77;;
38457;SDS011;24239;48.058;10.486;2024-03-06T03:12:21;28.85;;;15.07;;
38457;SDS011;24239;48.058;10.486;2024-03-06T03:15:07;31.33;;;15.10;;
38457;SDS011;24239;48.058;10.486;2024-03-06T03:17:53;31.00;;;15.93;;
38457;SDS011;24239;48.058;10.486;2024-03-06T03:20:39;27.65;;;13.95;;
38457;SDS011;24239;48.058;10.486;2024-03-06T03:23:24;32.60;;;15.07;;
38457;SDS011;24239;48.058;10.486;2024-03-06T03:26:11;26.80;;;13.98;;
38457;SDS011;24239;48.058;10.486;2024-03-06T03:28:56;25.05;;;14.23;;
38457;SDS011;24239;48.058;10.486;2024-03-06T03:31:42;27.60;;;14.70;;
38457;SDS011;24239;48.058;10.486;2024-03-06T03:34:28;30.48;;;15.73;;
38457;SDS011;24239;48.058;10.486;2024-03-06T03:37:14;30.80;;;14.70;;
38457;SDS011;24239;48.058;10.486;2024-03-06T03:40:00;28.17;;;14.90;;
38457;SDS011;24239;48.058;10.486;2024-03-06T03:42:45;29.23;;;14.50;;
38457;SDS011;24239;48.058;10.486;2024-03-06T03:45:35;26.95;;;14.15;;
38457;SDS011;24239;48.058;10.486;2024-03-06T03:48:21;32.13;;;15.45;;
38457;SDS011;24239;48.058;10.486;2024-03-06T03:51:06;28.73;;;13.75;;
38457;SDS011;24239;48.058;10.486;2024-03-06T03:53:52;30.35;;;15.23;;
38457;SDS011;24239;48.058;10.486;2024-03-06T03:56:38;28.65;;;14.73;;
38457;SDS011;24239;48.058;10.486;2024-03-06T03:59:24;25.55;;;13.85;;
38457;SDS011;24239;48.058;10.486;2024-03-06T04:02:10;34.75;;;15.30;;
38457;SDS011;24239;48.058;10.486;2024-03-06T04:04:56;26.80;;;14.50;;
38457;SDS011;24239;48.058;10.486;2024-03-06T04:07:41;28.88;;;13.95;;
38457;SDS011;24239;48.058;10.486;2024-03-06T04:10:27;24.20;;;12.20;;
38457;SDS011;24239;48.058;10.486;2024-03-06T04:13:14;18.63;;;11.15;;
38457;SDS011;24239;48.058;10.486;2024-03-06T04:16:01;19.10;;;10.48;;
38457;SDS011;24239;48.058;10.486;2024-03-06T04:18:47;21.55;;;11.60;;
38457;SDS011;24239;48.058;10.486;2024-03-06T04:21:33;24.45;;;12.30;;
38457;SDS011;24239;48.058;10.486;2024-03-06T04:24:19;20.42;;;11.68;;
38457;SDS011;24239;48.058;10.486;2024-03-06T04:27:04;26.10;;;11.60;;
38457;SDS011;24239;48.058;10.486;2024-03-06T04:29:50;24.52;;;11.55;;
38457;SDS011;24239;48.058;10.486;2024-03-06T04:32:36;23.05;;;11.70;;
38457;SDS011;24239;48.058;10.486;2024-03-06T04:35:22;19.08;;;10.50;;
38457;SDS011;24239;48.058;10.486;2024-03-06T04:38:07;21.75;;;12.63;;
38457;SDS011;24239;48.058;10.486;2024-03-06T04:40:53;25.20;;;12.60;;
38457;SDS011;24239;48.058;10.486;2024-03-06T04:43:39;24.13;;;12.00;;
38457;SDS011;24239;48.058;10.486;2024-03-06T04:46:25;24.58;;;11.88;;
38457;SDS011;24239;48.058;10.486;2024-03-06T04:49:10;20.02;;;11.77;;
38457;SDS011;24239;48.058;10.486;2024-03-06T04:51:56;25.40;;;12.77;;
38457;SDS011;24239;48.058;10.486;2024-03-06T04:54:42;22.90;;;11.65;;
38457;SDS011;24239;48.058;10.486;2024-03-06T04:57:27;22.95;;;11.93;;
38457;SDS011;24239;48.058;10.486;2024-03-06T05:00:13;22.35;;;12.38;;
38457;SDS011;24239;48.058;10.486;2024-03-06T05:02:59;22.73;;;11.32;;
38457;SDS011;24239;48.058;10.486;2024-03-06T05:05:45;22.98;;;12.13;;
38457;SDS011;24239;48.058;10.486;2024-03-06T05:08:31;22.25;;;11.35;;
38457;SDS011;24239;48.058;10.486;2024-03-06T05:11:16;21.75;;;12.02;;
38457;SDS011;24239;48.058;10.486;2024-03-06T05:14:03;25.60;;;11.80;;
38457;SDS011;24239;48.058;10.486;2024-03-06T05:16:48;20.33;;;10.40;;
38457;SDS011;24239;48.058;10.486;2024-03-06T05:19:34;22.05;;;10.82;;
38457;SDS011;24239;48.058;10.486;2024-03-06T05:22:20;23.83;;;11.43;;
38457;SDS011;24239;48.058;10.486;2024-03-06T05:25:06;21.92;;;11.15;;
38457;SDS011;24239;48.058;10.486;2024-03-06T05:27:52;21.80;;;10.40;;
38457;SDS011;24239;48.058;10.486;2024-03-06T05:30:37;26.98;;;12.48;;
38457;SDS011;24239;48.058;10.486;2024-03-06T05:33:23;25.10;;;11.35;;
38457;SDS011;24239;48.058;10.486;2024-03-06T05:36:09;22.00;;;10.73;;
38457;SDS011;24239;48.058;10.486;2024-03-06T05:38:54;22.73;;;11.82;;
38457;SDS011;24239;48.058;10.486;2024-03-06T05:41:41;20.52;;;11.38;;
38457;SDS011;24239;48.058;10.486;2024-03-06T05:44:27;23.10;;;12.00;;
38457;SDS011;24239;48.058;10.486;2024-03-06T05:47:13;26.25;;;11.85;;
38457;SDS011;24239;48.058;10.486;2024-03-06T05:49:59;24.80;;;11.82;;
38457;SDS011;24239;48.058;10.486;2024-03-06T05:52:45;29.08;;;12.60;;
38457;SDS011;24239;48.058;10.486;2024-03-06T05:55:30;24.42;;;11.65;;
38457;SDS011;24239;48.058;10.486;2024-03-06T05:58:16;21.35;;;10.98;;
38457;SDS011;24239;48.058;10.486;2024-03-06T06:01:02;19.45;;;10.25;;
38457;SDS011;24239;48.058;10.486;2024-03-06T06:03:50;26.98;;;11.80;;
38457;SDS011;24239;48.058;10.486;2024-03-06T06:06:36;23.20;;;11.65;;
38457;SDS011;24239;48.058;10.486;2024-03-06T06:09:22;26.05;;;12.73;;
38457;SDS011;24239;48.058;10.486;2024-03-06T06:12:08;21.50;;;11.25;;
38457;SDS011;24239;48.058;10.486;2024-03-06T06:14:54;23.98;;;12.13;;
38457;SDS011;24239;48.058;10.486;2024-03-06T06:17:39;24.92;;;12.68;;
38457;SDS011;24239;48.058;10.486;2024-03-06T06:20:28;18.98;;;11.48;;
38457;SDS011;24239;48.058;10.486;2024-03-06T06:23:14;22.17;;;10.82;;
38457;SDS011;24239;48.058;10.486;2024-03-06T06:26:00;25.63;;;12.15;;
38457;SDS011;24239;48.058;10.486;2024-03-06T06:28:45;22.42;;;10.68;;
38457;SDS011;24239;48.058;10.486;2024-03-06T06:31:31;25.25;;;12.10;;
38457;SDS011;24239;48.058;10.486;2024-03-06T06:34:17;24.00;;;11.25;;
38457;SDS011;24239;48.058;10.486;2024-03-06T06:37:03;25.08;;;11.20;;
38457;SDS011;24239;48.058;10.486;2024-03-06T06:39:49;25.52;;;11.98;;
38457;SDS011;24239;48.058;10.486;2024-03-06T06:42:35;26.42;;;12.88;;
38457;SDS011;24239;48.058;10.486;2024-03-06T06:45:21;25.98;;;12.80;;
38457;SDS011;24239;48.058;10.486;2024-03-06T06:48:07;29.15;;;12.73;;
38457;SDS011;24239;48.058;10.486;2024-03-06T06:50:54;27.73;;;13.13;;
38457;SDS011;24239;48.058;10.486;2024-03-06T06:53:40;28.00;;;13.35;;
38457;SDS011;24239;48.058;10.486;2024-03-06T06:56:28;27.48;;;12.63;;
38457;SDS011;24239;48.058;10.486;2024-03-06T06:59:14;27.33;;;11.73;;
38457;SDS011;24239;48.058;10.486;2024-03-06T07:02:00;26.95;;;13.23;;
38457;SDS011;24239;48.058;10.486;2024-03-06T07:04:46;31.15;;;14.23;;
38457;SDS011;24239;48.058;10.486;2024-03-06T07:07:31;27.70;;;13.27;;
38457;SDS011;24239;48.058;10.486;2024-03-06T07:10:17;30.58;;;14.27;;
38457;SDS011;24239;48.058;10.486;2024-03-06T07:13:03;30.13;;;14.50;;
38457;SDS011;24239;48.058;10.486;2024-03-06T07:15:50;29.75;;;13.57;;
38457;SDS011;24239;48.058;10.486;2024-03-06T07:18:36;31.15;;;14.57;;
38457;SDS011;24239;48.058;10.486;2024-03-06T07:21:21;28.48;;;14.65;;
38457;SDS011;24239;48.058;10.486;2024-03-06T07:24:07;42.50;;;17.52;;
38457;SDS011;24239;48.058;10.486;2024-03-06T07:26:53;34.20;;;15.55;;
38457;SDS011;24239;48.058;10.486;2024-03-06T07:29:38;40.85;;;16.15;;
38457;SDS011;24239;48.058;10.486;2024-03-06T07:32:24;37.38;;;16.10;;
38457;SDS011;24239;48.058;10.486;2024-03-06T07:35:10;35.75;;;15.98;;
38457;SDS011;24239;48.058;10.486;2024-03-06T07:37:57;35.30;;;16.25;;
38457;SDS011;24239;48.058;10.486;2024-03-06T07:40:43;33.35;;;15.23;;
38457;SDS011;24239;48.058;10.486;2024-03-06T07:43:28;38.55;;;17.77;;
38457;SDS011;24239;48.058;10.486;2024-03-06T07:46:14;37.50;;;16.13;;
38457;SDS011;24239;48.058;10.486;2024-03-06T07:49:01;30.83;;;15.50;;
38457;SDS011;24239;48.058;10.486;2024-03-06T07:51:48;34.70;;;15.85;;
38457;SDS011;24239;48.058;10.486;2024-03-06T07:54:34;34.70;;;16.05;;
38457;SDS011;24239;48.058;10.486;2024-03-06T07:57:19;36.40;;;16.58;;
38457;SDS011;24239;48.058;10.486;2024-03-06T08:00:06;40.55;;;19.10;;
38457;SDS011;24239;48.058;10.486;2024-03-06T08:03:04;40.92;;;17.17;;
38457;SDS011;24239;48.058;10.486;2024-03-06T08:05:53;37.78;;;18.17;;
38457;SDS011;24239;48.058;10.486;2024-03-06T08:08:39;33.53;;;18.17;;
38457;SDS011;24239;48.058;10.486;2024-03-06T08:11:25;34.00;;;16.20;;
38457;SDS011;24239;48.058;10.486;2024-03-06T08:14:11;32.90;;;16.40;;
38457;SDS011;24239;48.058;10.486;2024-03-06T08:16:57;33.80;;;16.45;;
38457;SDS011;24239;48.058;10.486;2024-03-06T08:19:42;36.53;;;16.13;;
38457;SDS011;24239;48.058;10.486;2024-03-06T08:22:28;35.97;;;16.98;;
38457;SDS011;24239;48.058;10.486;2024-03-06T08:25:14;34.10;;;16.20;;
38457;SDS011;24239;48.058;10.486;2024-03-06T08:28:00;38.42;;;16.55;;
38457;SDS011;24239;48.058;10.486;2024-03-06T08:30:45;35.03;;;17.85;;
38457;SDS011;24239;48.058;10.486;2024-03-06T08:33:31;36.47;;;16.88;;
38457;SDS011;24239;48.058;10.486;2024-03-06T08:36:17;35.15;;;17.42;;
38457;SDS011;24239;48.058;10.486;2024-03-06T08:39:03;32.60;;;16.75;;
38457;SDS011;24239;48.058;10.486;2024-03-06T08:41:48;32.42;;;15.60;;
38457;SDS011;24239;48.058;10.486;2024-03-06T08:44:34;35.80;;;17.67;;
38457;SDS011;24239;48.058;10.486;2024-03-06T08:47:20;32.17;;;16.83;;
38457;SDS011;24239;48.058;10.486;2024-03-06T08:50:05;32.95;;;15.90;;
38457;SDS011;24239;48.058;10.486;2024-03-06T08:52:53;29.35;;;15.25;;
38457;SDS011;24239;48.058;10.486;2024-03-06T08:55:39;27.85;;;14.20;;
38457;SDS011;24239;48.058;10.486;2024-03-06T08:58:24;31.42;;;15.23;;
38457;SDS011;24239;48.058;10.486;2024-03-06T09:01:10;29.33;;;16.27;;
38457;SDS011;24239;48.058;10.486;2024-03-06T09:03:56;31.42;;;16.98;;
38457;SDS011;24239;48.058;10.486;2024-03-06T09:06:42;29.67;;;14.73;;
38457;SDS011;24239;48.058;10.486;2024-03-06T09:09:28;26.02;;;14.43;;
38457;SDS011;24239;48.058;10.486;2024-03-06T09:12:14;26.58;;;14.27;;
38457;SDS011;24239;48.058;10.486;2024-03-06T09:15:01;29.55;;;13.85;;
38457;SDS011;24239;48.058;10.486;2024-03-06T09:17:47;29.45;;;13.88;;
38457;SDS011;24239;48.058;10.486;2024-03-06T09:20:33;24.90;;;14.50;;
38457;SDS011;24239;48.058;10.486;2024-03-06T09:23:18;28.05;;;14.45;;
38457;SDS011;24239;48.058;10.486;2024-03-06T09:26:04;29.55;;;14.30;;
38457;SDS011;24239;48.058;10.486;2024-03-06T09:28:51;23.80;;;12.65;;
38457;SDS011;24239;48.058;10.486;2024-03-06T09:31:37;21.55;;;12.30;;
38457;SDS011;24239;48.058;10.486;2024-03-06T09:34:22;20.40;;;11.98;;
38457;SDS011;24239;48.058;10.486;2024-03-06T09:37:09;21.75;;;11.77;;
38457;SDS011;24239;48.058;10.486;2024-03-06T09:39:55;22.35;;;12.45;;
38457;SDS011;24239;48.058;10.486;2024-03-06T09:42:41;24.52;;;11.90;;
38457;SDS011;24239;48.058;10.486;2024-03-06T09:45:29;22.85;;;13.00;;
38457;SDS011;24239;48.058;10.486;2024-03-06T09:48:14;35.00;;;23.95;;
38457;SDS011;24239;48.058;10.486;2024-03-06T09:51:02;45.20;;;28.85;;
38457;SDS011;24239;48.058;10.486;2024-03-06T09:53:48;29.38;;;17.30;;
38457;SDS011;24239;48.058;10.486;2024-03-06T09:56:37;46.92;;;27.83;;
38457;SDS011;24239;48.058;10.486;2024-03-06T09:59:22;39.70;;;24.40;;
38457;SDS011;24239;48.058;10.486;2024-03-06T10:02:11;24.02;;;13.52;;
38457;SDS011;24239;48.058;10.486;2024-03-06T10:05:04;24.10;;;14.95;;
38457;SDS011;24239;48.058;10.486;2024-03-06T10:07:51;21.50;;;12.93;;
38457;SDS011;24239;48.058;10.486;2024-03-06T10:10:37;19.67;;;12.30;;
38457;SDS011;24239;48.058;10.486;2024-03-06T10:13:23;23.70;;;13.55;;
38457;SDS011;24239;48.058;10.486;2024-03-06T10:16:10;22.38;;;13.27;;
38457;SDS011;24239;48.058;10.486;2024-03-06T10:18:56;19.98;;;12.50;;
38457;SDS011;24239;48.058;10.486;2024-03-06T10:21:42;20.42;;;10.75;;
38457;SDS011;24239;48.058;10.486;2024-03-06T10:24:29;22.20;;;12.80;;
38457;SDS011;24239;48.058;10.486;2024-03-06T10:27:15;20.20;;;11.98;;
38457;SDS011;24239;48.058;10.486;2024-03-06T10:30:03;17.88;;;11.27;;
38457;SDS011;24239;48.058;10.486;2024-03-06T10:32:49;18.85;;;11.30;;
38457;SDS011;24239;48.058;10.486;2024-03-06T10:35:35;21.48;;;12.57;;
38457;SDS011;24239;48.058;10.486;2024-03-06T10:38:24;21.42;;;12.52;;
38457;SDS011;24239;48.058;10.486;2024-03-06T10:41:12;18.63;;;11.38;;
38457;SDS011;24239;48.058;10.486;2024-03-06T10:43:59;18.88;;;11.02;;
38457;SDS011;24239;48.058;10.486;2024-03-06T10:46:46;23.70;;;12.82;;
38457;SDS011;24239;48.058;10.486;2024-03-06T10:49:33;17.25;;;10.55;;
38457;SDS011;24239;48.058;10.486;2024-03-06T10:52:19;19.17;;;10.80;;
38457;SDS011;24239;48.058;10.486;2024-03-06T10:55:06;20.30;;;10.95;;
38457;SDS011;24239;48.058;10.486;2024-03-06T10:57:54;18.38;;;10.90;;
38457;SDS011;24239;48.058;10.486;2024-03-06T11:00:41;16.75;;;9.57;;
38457;SDS011;24239;48.058;10.486;2024-03-06T11:03:27;17.95;;;10.07;;
38457;SDS011;24239;48.058;10.486;2024-03-06T11:06:16;18.10;;;11.20;;
38457;SDS011;24239;48.058;10.486;2024-03-06T11:09:01;14.20;;;9.15;;
38457;SDS011;24239;48.058;10.486;2024-03-06T11:11:49;13.48;;;8.98;;
38457;SDS011;24239;48.058;10.486;2024-03-06T11:14:37;11.43;;;8.38;;
38457;SDS011;24239;48.058;10.486;2024-03-06T11:17:26;15.35;;;9.40;;
38457;SDS011;24239;48.058;10.486;2024-03-06T11:20:13;15.88;;;9.68;;
38457;SDS011;24239;48.058;10.486;2024-03-06T11:23:01;11.75;;;8.57;;
38457;SDS011;24239;48.058;10.486;2024-03-06T11:28:45;11.98;;;8.55;;
38457;SDS011;24239;48.058;10.486;2024-03-06T11:31:35;12.20;;;8.57;;
38457;SDS011;24239;48.058;10.486;2024-03-06T11:34:21;10.13;;;7.35;;
38457;SDS011;24239;48.058;10.486;2024-03-06T11:37:07;44.67;;;19.17;;
38457;SDS011;24239;48.058;10.486;2024-03-06T11:39:59;35.65;;;13.65;;
38457;SDS011;24239;48.058;10.486;2024-03-06T11:42:46;61.58;;;22.40;;
38457;SDS011;24239;48.058;10.486;2024-03-06T11:45:43;12.63;;;8.32;;
38457;SDS011;24239;48.058;10.486;2024-03-06T11:48:29;14.68;;;9.70;;
38457;SDS011;24239;48.058;10.486;2024-03-06T11:51:15;11.32;;;7.10;;
38457;SDS011;24239;48.058;10.486;2024-03-06T11:54:02;8.13;;;5.80;;
38457;SDS011;24239;48.058;10.486;2024-03-06T11:56:51;7.45;;;5.20;;
38457;SDS011;24239;48.058;10.486;2024-03-06T11:59:39;7.18;;;5.00;;
38457;SDS011;24239;48.058;10.486;2024-03-06T12:02:24;6.53;;;4.45;;
38457;SDS011;24239;48.058;10.486;2024-03-06T12:05:10;5.47;;;3.88;;
38457;SDS011;24239;48.058;10.486;2024-03-06T12:07:56;7.22;;;4.22;;
38457;SDS011;24239;48.058;10.486;2024-03-06T12:10:42;5.55;;;4.53;;
38457;SDS011;24239;48.058;10.486;2024-03-06T12:13:28;3.58;;;3.25;;
38457;SDS011;24239;48.058;10.486;2024-03-06T12:16:14;4.25;;;3.60;;
38457;SDS011;24239;48.058;10.486;2024-03-06T12:18:59;3.60;;;3.30;;
38457;SDS011;24239;48.058;10.486;2024-03-06T12:21:46;3.80;;;3.40;;
38457;SDS011;24239;48.058;10.486;2024-03-06T12:24:32;4.00;;;3.30;;
38457;SDS011;24239;48.058;10.486;2024-03-06T12:27:22;3.28;;;2.97;;
38457;SDS011;24239;48.058;10.486;2024-03-06T12:30:08;4.53;;;4.10;;
38457;SDS011;24239;48.058;10.486;2024-03-06T12:32:57;3.00;;;2.70;;
38457;SDS011;24239;48.058;10.486;2024-03-06T12:35:43;3.10;;;2.80;;
38457;SDS011;24239;48.058;10.486;2024-03-06T12:38:29;3.10;;;2.80;;
38457;SDS011;24239;48.058;10.486;2024-03-06T12:41:15;3.95;;;3.53;;
38457;SDS011;24239;48.058;10.486;2024-03-06T12:44:00;5.15;;;4.13;;
38457;SDS011;24239;48.058;10.486;2024-03-06T12:46:46;3.40;;;3.10;;
38457;SDS011;24239;48.058;10.486;2024-03-06T12:49:32;3.70;;;3.20;;
38457;SDS011;24239;48.058;10.486;2024-03-06T12:52:18;3.70;;;3.30;;
38457;SDS011;24239;48.058;10.486;2024-03-06T12:55:03;4.72;;;3.58;;
38457;SDS011;24239;48.058;10.486;2024-03-06T12:57:50;2.97;;;2.63;;
38457;SDS011;24239;48.058;10.486;2024-03-06T13:00:36;3.00;;;2.70;;
38457;SDS011;24239;48.058;10.486;2024-03-06T13:03:22;2.60;;;2.40;;
38457;SDS011;24239;48.058;10.486;2024-03-06T13:06:07;3.22;;;2.58;;
38457;SDS011;24239;48.058;10.486;2024-03-06T13:08:53;3.03;;;2.72;;
38457;SDS011;24239;48.058;10.486;2024-03-06T13:11:39;3.30;;;2.60;;
38457;SDS011;24239;48.058;10.486;2024-03-06T13:14:25;5.15;;;2.90;;
38457;SDS011;24239;48.058;10.486;2024-03-06T13:17:11;4.28;;;3.15;;
38457;SDS011;24239;48.058;10.486;2024-03-06T13:19:56;3.90;;;2.75;;
38457;SDS011;24239;48.058;10.486;2024-03-06T13:22:42;3.50;;;2.50;;
38457;SDS011;24239;48.058;10.486;2024-03-06T13:25:29;3.20;;;2.90;;
38457;SDS011;24239;48.058;10.486;2024-03-06T13:28:16;2.60;;;2.40;;
38457;SDS011;24239;48.058;10.486;2024-03-06T13:31:02;2.60;;;2.40;;
38457;SDS011;24239;48.058;10.486;2024-03-06T13:33:48;2.60;;;2.38;;
38457;SDS011;24239;48.058;10.486;2024-03-06T13:36:34;3.10;;;2.40;;
38457;SDS011;24239;48.058;10.486;2024-03-06T13:39:20;2.88;;;2.50;;
38457;SDS011;24239;48.058;10.486;2024-03-06T13:42:06;2.22;;;2.10;;
38457;SDS011;24239;48.058;10.486;2024-03-06T13:44:53;2.78;;;2.45;;
38457;SDS011;24239;48.058;10.486;2024-03-06T13:47:40;2.75;;;2.55;;
38457;SDS011;24239;48.058;10.486;2024-03-06T13:50:26;4.82;;;3.38;;
38457;SDS011;24239;48.058;10.486;2024-03-06T13:53:14;3.95;;;3.22;;
38457;SDS011;24239;48.058;10.486;2024-03-06T13:56:00;15.38;;;6.65;;
38457;SDS011;24239;48.058;10.486;2024-03-06T13:58:46;27.02;;;11.40;;
38457;SDS011;24239;48.058;10.486;2024-03-06T14:01:32;5.75;;;4.55;;
38457;SDS011;24239;48.058;10.486;2024-03-06T14:04:17;4.97;;;4.47;;
38457;SDS011;24239;48.058;10.486;2024-03-06T14:07:04;5.80;;;4.78;;
38457;SDS011;24239;48.058;10.486;2024-03-06T14:09:50;5.18;;;4.68;;
38457;SDS011;24239;48.058;10.486;2024-03-06T14:12:38;3.20;;;2.90;;
38457;SDS011;24239;48.058;10.486;2024-03-06T14:15:24;3.00;;;2.80;;
38457;SDS011;24239;48.058;10.486;2024-03-06T14:18:11;3.15;;;2.65;;
38457;SDS011;24239;48.058;10.486;2024-03-06T14:20:57;2.67;;;2.45;;
38457;SDS011;24239;48.058;10.486;2024-03-06T14:23:42;3.33;;;2.80;;
38457;SDS011;24239;48.058;10.486;2024-03-06T14:26:29;2.67;;;2.45;;
38457;SDS011;24239;48.058;10.486;2024-03-06T14:29:15;2.30;;;2.20;;
38457;SDS011;24239;48.058;10.486;2024-03-06T14:32:01;2.70;;;2.47;;
38457;SDS011;24239;48.058;10.486;2024-03-06T14:34:48;2.65;;;2.25;;
38457;SDS011;24239;48.058;10.486;2024-03-06T14:37:33;2.75;;;2.50;;
38457;SDS011;24239;48.058;10.486;2024-03-06T14:40:19;10.05;;;2.83;;
38457;SDS011;24239;48.058;10.486;2024-03-06T14:43:06;3.67;;;2.55;;
38457;SDS011;24239;48.058;10.486;2024-03-06T14:45:54;2.78;;;2.53;;
38457;SDS011;24239;48.058;10.486;2024-03-06T14:48:40;4.47;;;4.07;;
38457;SDS011;24239;48.058;10.486;2024-03-06T14:51:26;2.50;;;2.30;;
38457;SDS011;24239;48.058;10.486;2024-03-06T14:54:11;3.03;;;2.72;;
38457;SDS011;24239;48.058;10.486;2024-03-06T14:56:57;3.00;;;2.80;;
38457;SDS011;24239;48.058;10.486;2024-03-06T14:59:43;2.95;;;2.75;;
38457;SDS011;24239;48.058;10.486;2024-03-06T15:02:29;2.58;;;2.38;;
38457;SDS011;24239;48.058;10.486;2024-03-06T15:05:15;2.80;;;2.60;;
38457;SDS011;24239;48.058;10.486;2024-03-06T15:08:01;2.80;;;2.60;;
38457;SDS011;24239;48.058;10.486;2024-03-06T15:10:49;2.70;;;2.50;;
38457;SDS011;24239;48.058;10.486;2024-03-06T15:13:37;2.45;;;2.25;;
38457;SDS011;24239;48.058;10.486;2024-03-06T15:16:23;3.47;;;2.53;;
38457;SDS011;24239;48.058;10.486;2024-03-06T15:19:08;3.13;;;2.42;;
38457;SDS011;24239;48.058;10.486;2024-03-06T15:21:54;3.50;;;3.20;;
38457;SDS011;24239;48.058;10.486;2024-03-06T15:24:41;2.75;;;2.55;;
38457;SDS011;24239;48.058;10.486;2024-03-06T15:27:26;4.65;;;3.65;;
38457;SDS011;24239;48.058;10.486;2024-03-06T15:30:12;2.95;;;2.60;;
38457;SDS011;24239;48.058;10.486;2024-03-06T15:32:59;3.38;;;2.60;;
38457;SDS011;24239;48.058;10.486;2024-03-06T15:35:45;2.70;;;2.50;;
38457;SDS011;24239;48.058;10.486;2024-03-06T15:38:31;2.80;;;2.58;;
38457;SDS011;24239;48.058;10.486;2024-03-06T15:41:17;2.78;;;2.58;;
38457;SDS011;24239;48.058;10.486;2024-03-06T15:44:05;2.58;;;2.38;;
38457;SDS011;24239;48.058;10.486;2024-03-06T15:46:53;3.63;;;2.75;;
38457;SDS011;24239;48.058;10.486;2024-03-06T15:49:39;3.10;;;2.80;;
38457;SDS011;24239;48.058;10.486;2024-03-06T15:52:25;3.00;;;2.80;;
38457;SDS011;24239;48.058;10.486;2024-03-06T15:55:11;2.85;;;2.65;;
38457;SDS011;24239;48.058;10.486;2024-03-06T15:57:57;2.90;;;2.58;;
38457;SDS011;24239;48.058;10.486;2024-03-06T16:00:46;2.58;;;2.38;;
38457;SDS011;24239;48.058;10.486;2024-03-06T16:03:31;3.00;;;2.80;;
38457;SDS011;24239;48.058;10.486;2024-03-06T16:06:17;3.20;;;2.90;;
38457;SDS011;24239;48.058;10.486;2024-03-06T16:09:03;4.97;;;4.57;;
38457;SDS011;24239;48.058;10.486;2024-03-06T16:11:50;3.03;;;2.83;;